Time;durP1;ratioP1;P1;durP2;ratioP2;P2;SDS_P1;SDS_P2;PMS_P1;PMS_P2;Temp;Humidity;BMP_temperature;BMP_pressure;BME280_temperature;BME280_humidity;BME280_pressure;Samples;Min_cycle;Max_cycle;Signal;HPM_P1;HPM_P2
2022/08/06 00:00:22;;;;;;;2.90;1.80;;;;;;;24.79;49.39;99347.72;5129765;27;20111;-78
2022/08/06 00:02:47;;;;;;;4.07;2.40;;;;;;;24.72;50.09;99343.81;5129615;27;20055;-78
2022/08/06 00:05:13;;;;;;;6.07;2.35;;;;;;;24.94;50.13;99367.22;5129949;27;20027;-79
2022/08/06 00:07:39;;;;;;;2.78;2.03;;;;;;;24.82;50.62;99369.06;5129690;27;20213;-78
2022/08/06 00:10:04;;;;;;;4.18;1.80;;;;;;;24.84;50.50;99365.28;5129434;27;20027;-79
2022/08/06 00:12:32;;;;;;;4.05;2.15;;;;;;;24.79;50.61;99337.81;5129426;27;20039;-79
2022/08/06 00:14:58;;;;;;;4.20;2.50;;;;;;;24.94;50.62;99364.53;5129317;27;20400;-79
2022/08/06 00:17:24;;;;;;;4.15;2.40;;;;;;;24.95;50.83;99366.25;5129803;27;20031;-78
2022/08/06 00:19:50;;;;;;;5.97;2.28;;;;;;;24.93;50.62;99361.00;5129326;27;20230;-79
2022/08/06 00:22:16;;;;;;;3.38;2.00;;;;;;;24.95;50.91;99360.88;5129852;27;20125;-78
2022/08/06 00:24:41;;;;;;;4.47;2.40;;;;;;;24.84;51.24;99351.78;5129431;27;20031;-79
2022/08/06 00:27:07;;;;;;;3.70;2.30;;;;;;;24.96;51.17;99370.66;5128939;27;20046;-79
2022/08/06 00:29:33;;;;;;;4.35;2.80;;;;;;;24.87;51.28;99360.59;5128561;27;20056;-79
2022/08/06 00:31:58;;;;;;;3.70;2.17;;;;;;;24.88;51.68;99367.72;5128848;27;20033;-79
2022/08/06 00:34:24;;;;;;;3.78;2.28;;;;;;;24.74;51.97;99356.19;5129009;27;20126;-78
2022/08/06 00:36:49;;;;;;;3.70;2.08;;;;;;;24.74;51.94;99369.66;5129497;27;20157;-79
2022/08/06 00:39:15;;;;;;;2.83;1.75;;;;;;;24.54;52.04;99352.34;5128883;27;20026;-78
2022/08/06 00:41:40;;;;;;;5.32;2.25;;;;;;;24.71;52.34;99367.22;5128923;27;20143;-79
2022/08/06 00:44:06;;;;;;;3.13;1.98;;;;;;;24.73;52.06;99367.97;5129196;27;20023;-79
2022/08/06 00:46:31;;;;;;;4.20;2.72;;;;;;;24.75;52.03;99375.94;5128567;27;20027;-78
2022/08/06 00:48:57;;;;;;;4.13;2.22;;;;;;;24.57;52.03;99364.72;5109914;27;20043;-79
2022/08/06 00:51:23;;;;;;;2.30;1.77;;;;;;;24.59;52.33;99363.66;5109917;27;20147;-78
2022/08/06 00:53:50;;;;;;;3.70;1.98;;;;;;;24.43;52.55;99355.88;5128188;27;20425;-78
2022/08/06 00:56:16;;;;;;;4.30;2.72;;;;;;;24.59;52.34;99373.56;5128659;27;20606;-80
2022/08/06 00:58:41;;;;;;;3.55;2.30;;;;;;;24.53;52.25;99358.72;5128431;27;20106;-78
2022/08/06 01:01:08;;;;;;;4.68;2.10;;;;;;;24.60;52.43;99361.81;5128046;27;20057;-78
2022/08/06 01:03:34;;;;;;;4.75;2.53;;;;;;;24.58;52.57;99361.94;5129634;27;20033;-78
2022/08/06 01:05:59;;;;;;;4.20;2.67;;;;;;;24.41;52.85;99354.28;5130369;27;20031;-77
2022/08/06 01:08:25;;;;;;;5.25;2.95;;;;;;;24.47;53.06;99360.06;5127893;27;20906;-79
2022/08/06 01:10:50;;;;;;;5.40;3.28;;;;;;;24.41;53.64;99359.69;5128507;27;20054;-78
2022/08/06 01:13:16;;;;;;;5.38;2.78;;;;;;;24.30;53.46;99334.41;5128019;27;20049;-78
2022/08/06 01:15:50;;;;;;;4.85;2.47;;;;;;;24.47;53.62;99367.28;5128101;27;20039;-79
2022/08/06 01:18:25;;;;;;;3.97;2.28;;;;;;;24.52;53.72;99372.31;5128675;27;20023;-78
2022/08/06 01:21:09;;;;;;;3.38;2.08;;;;;;;24.50;53.77;99369.75;5128047;27;20091;-79
2022/08/06 01:24:05;;;;;;;3.08;2.03;;;;;;;24.52;53.79;99356.16;5128693;27;20031;-78
2022/08/06 01:26:53;;;;;;;8.00;2.63;;;;;;;24.53;54.00;99365.94;5128529;27;20087;-79
2022/08/06 01:29:26;;;;;;;4.55;2.72;;;;;;;24.55;53.79;99358.59;5128043;27;20027;-79
2022/08/06 01:32:15;;;;;;;4.22;2.72;;;;;;;24.46;54.26;99362.88;5127812;27;20035;-80
2022/08/06 01:35:01;;;;;;;3.97;2.72;;;;;;;24.20;54.87;99367.59;5127866;27;20489;-78
2022/08/06 01:37:33;;;;;;;3.03;1.95;;;;;;;24.25;54.45;99344.72;5127917;27;20031;-79
2022/08/06 01:40:04;;;;;;;4.95;2.58;;;;;;;24.41;54.42;99359.69;5127718;27;20092;-79
2022/08/06 01:42:32;;;;;;;6.60;2.38;;;;;;;24.38;54.22;99352.69;5126923;27;20023;-79
2022/08/06 01:45:03;;;;;;;5.32;2.75;;;;;;;24.45;54.26;99359.31;5127961;27;20027;-78
2022/08/06 01:47:33;;;;;;;4.03;2.35;;;;;;;24.36;54.52;99368.13;5127976;27;20094;-79
2022/08/06 01:50:05;;;;;;;5.10;3.03;;;;;;;24.47;54.16;99365.44;5128067;27;20552;-81
2022/08/06 01:52:38;;;;;;;5.60;3.45;;;;;;;24.26;54.59;99365.25;5127985;27;20030;-80
2022/08/06 01:55:07;;;;;;;4.93;2.40;;;;;;;24.24;54.84;99355.59;5127682;28;20023;-79
2022/08/06 01:57:36;;;;;;;5.20;2.78;;;;;;;24.27;55.16;99360.75;5127864;28;20122;-79
2022/08/06 02:00:04;;;;;;;3.97;2.58;;;;;;;24.29;55.18;99369.56;5128190;28;20070;-78
2022/08/06 02:02:31;;;;;;;4.65;2.90;;;;;;;24.19;55.01;99339.78;5127638;28;20027;-78
2022/08/06 02:05:00;;;;;;;4.07;2.33;;;;;;;24.30;54.99;99364.06;5127832;28;20023;-79
2022/08/06 02:07:30;;;;;;;3.83;2.70;;;;;;;24.30;55.09;99365.91;5127807;28;20023;-81
2022/08/06 02:09:58;;;;;;;4.60;2.83;;;;;;;24.23;55.02;99353.88;5127486;28;20055;-78
2022/08/06 02:12:26;;;;;;;3.33;2.58;;;;;;;24.27;55.42;99369.69;5127182;28;20063;-78
2022/08/06 02:14:56;;;;;;;3.38;2.40;;;;;;;24.23;55.37;99352.03;5127746;28;20023;-79
2022/08/06 02:17:29;;;;;;;4.43;2.92;;;;;;;24.26;55.49;99354.47;5127919;28;20092;-78
2022/08/06 02:20:00;;;;;;;5.55;2.58;;;;;;;24.22;55.51;99353.03;5127859;28;20062;-79
2022/08/06 02:22:28;;;;;;;4.72;2.83;;;;;;;24.26;55.24;99362.56;5127150;28;20019;-78
2022/08/06 02:24:57;;;;;;;5.00;2.97;;;;;;;24.00;55.37;99348.41;5127217;28;20042;-78
2022/08/06 02:27:24;;;;;;;5.82;3.33;;;;;;;23.98;55.61;99350.38;5127608;28;20035;-78
2022/08/06 02:29:53;;;;;;;4.35;3.22;;;;;;;24.13;55.40;99356.44;5127216;28;20050;-78
2022/08/06 02:32:19;;;;;;;5.72;2.90;;;;;;;24.08;55.57;99374.75;5127427;27;20091;-77
2022/08/06 02:34:45;;;;;;;4.57;2.83;;;;;;;23.97;55.79;99364.81;5127178;28;20030;-79
2022/08/06 02:37:17;;;;;;;5.97;2.88;;;;;;;24.08;55.59;99367.56;5127348;28;20027;-78
2022/08/06 02:39:54;;;;;;;4.13;2.25;;;;;;;23.88;55.84;99349.34;5127235;28;20066;-78
2022/08/06 02:43:01;;;;;;;4.80;3.00;;;;;;;23.99;56.06;99356.59;5127621;28;20039;-79
2022/08/06 02:45:45;;;;;;;5.80;3.03;;;;;;;23.89;56.23;99367.22;5023067;28;20033;-78
2022/08/06 02:48:19;;;;;;;9.02;2.85;;;;;;;23.70;56.75;99348.88;5024178;28;20052;-79
2022/08/06 02:50:48;;;;;;;4.70;2.90;;;;;;;23.58;56.83;99350.66;5092663;28;20031;-79
2022/08/06 02:53:19;;;;;;;5.45;3.25;;;;;;;23.52;56.70;99353.78;5129256;27;20042;-78
2022/08/06 02:55:48;;;;;;;4.90;2.92;;;;;;;23.51;56.13;99342.19;5130818;27;20703;-78
2022/08/06 02:58:23;;;;;;;8.32;3.00;;;;;;;23.48;55.69;99333.47;5131328;27;20031;-78
2022/08/06 03:00:51;;;;;;;4.38;2.70;;;;;;;23.71;55.53;99370.31;5112029;27;20428;-78
2022/08/06 03:03:20;;;;;;;4.05;2.60;;;;;;;23.66;55.78;99366.22;5130903;27;20031;-78
2022/08/06 03:05:47;;;;;;;6.80;3.55;;;;;;;23.58;55.54;99350.66;5130931;27;20046;-78
2022/08/06 03:08:18;;;;;;;4.82;2.80;;;;;;;23.50;54.86;99342.28;5130378;27;20030;-82
2022/08/06 03:10:45;;;;;;;2.42;1.90;;;;;;;23.48;55.27;99360.38;5130728;27;20027;-81
2022/08/06 03:13:11;;;;;;;6.05;3.10;;;;;;;23.40;55.61;99364.50;5130539;27;20524;-78
2022/08/06 03:15:38;;;;;;;3.35;2.13;;;;;;;23.48;55.82;99371.13;5130832;27;20500;-78
2022/08/06 03:18:05;;;;;;;3.28;2.03;;;;;;;23.51;55.62;99376.28;5130673;27;20058;-81
2022/08/06 03:20:33;;;;;;;4.25;2.47;;;;;;;23.28;55.86;99346.56;5130711;27;20591;-79
2022/08/06 03:23:01;;;;;;;3.88;2.75;;;;;;;23.28;55.92;99351.06;5130657;27;20548;-78
2022/08/06 03:25:29;;;;;;;5.25;3.15;;;;;;;23.33;55.46;99348.94;5111746;27;20035;-79
2022/08/06 03:27:56;;;;;;;7.80;3.55;;;;;;;23.35;55.16;99369.34;5130668;27;20030;-78
2022/08/06 03:30:23;;;;;;;5.90;3.78;;;;;;;23.26;54.88;99366.47;5130552;27;20027;-78
2022/08/06 03:32:49;;;;;;;6.53;4.45;;;;;;;23.20;54.72;99365.09;5130189;27;20043;-78
2022/08/06 03:35:16;;;;;;;6.78;3.47;;;;;;;23.11;54.47;99366.63;5130074;27;20035;-78
2022/08/06 03:37:42;;;;;;;4.72;2.83;;;;;;;23.03;54.26;99360.88;5130417;27;20165;-79
2022/08/06 03:40:10;;;;;;;4.15;2.80;;;;;;;22.87;54.85;99372.75;5130101;27;20035;-79
2022/08/06 03:42:36;;;;;;;4.18;3.17;;;;;;;22.74;55.56;99371.03;5130535;27;20114;-78
2022/08/06 03:45:02;;;;;;;7.47;2.90;;;;;;;22.89;55.60;99386.09;5130174;27;20027;-79
2022/08/06 03:47:34;;;;;;;4.60;2.72;;;;;;;22.83;55.11;99379.34;5111540;27;20156;-78
2022/08/06 03:50:08;;;;;;;4.18;2.63;;;;;;;22.88;55.51;99385.22;5130055;27;20254;-78
2022/08/06 03:52:39;;;;;;;5.22;3.88;;;;;;;22.58;56.53;99380.19;5129625;27;20041;-78
2022/08/06 03:55:07;;;;;;;6.38;2.72;;;;;;;22.72;56.48;99379.22;5130241;27;20041;-81
2022/08/06 03:57:40;;;;;;;7.53;3.08;;;;;;;22.77;55.92;99357.38;5129642;27;20458;-78
2022/08/06 04:00:09;;;;;;;7.15;3.55;;;;;;;22.97;55.49;99367.59;5129860;27;20511;-82
2022/08/06 04:02:42;;;;;;;4.25;2.85;;;;;;;22.91;55.64;99348.31;5129964;27;20034;-79
2022/08/06 04:05:11;;;;;;;4.38;3.00;;;;;;;22.95;55.49;99345.31;5128830;27;20134;-78
2022/08/06 04:07:38;;;;;;;3.97;3.05;;;;;;;22.92;55.97;99356.28;5129596;27;20027;-78
2022/08/06 04:10:04;;;;;;;4.75;2.97;;;;;;;23.23;55.40;99356.78;5129910;27;20027;-78
2022/08/06 04:12:31;;;;;;;5.38;3.55;;;;;;;23.32;55.10;99371.41;5129609;27;20527;-79
2022/08/06 04:14:58;;;;;;;6.50;4.00;;;;;;;23.27;55.55;99370.91;5129292;27;20560;-78
2022/08/06 04:17:26;;;;;;;5.85;4.05;;;;;;;23.62;54.84;99384.47;5129421;27;20073;-79
2022/08/06 04:19:53;;;;;;;8.60;3.50;;;;;;;23.81;54.08;99381.25;5129411;27;20455;-78
2022/08/06 04:22:20;;;;;;;5.30;3.13;;;;;;;23.99;53.15;99380.84;5129240;27;20027;-79
2022/08/06 04:24:46;;;;;;;4.45;2.95;;;;;;;24.11;52.97;99385.31;5129494;27;20027;-78
2022/08/06 04:27:13;;;;;;;4.28;3.17;;;;;;;24.24;52.56;99382.56;5129426;27;20031;-78
2022/08/06 04:29:41;;;;;;;5.47;2.67;;;;;;;24.26;52.30;99380.59;5129002;27;20031;-78
2022/08/06 04:32:07;;;;;;;4.90;3.53;;;;;;;24.36;52.44;99392.38;5129213;27;20091;-78
2022/08/06 04:34:36;;;;;;;12.85;4.55;;;;;;;24.31;52.67;99373.00;5129050;27;20668;-78
2022/08/06 04:37:02;;;;;;;4.15;3.00;;;;;;;24.21;52.38;99375.56;5129013;27;20417;-79
2022/08/06 04:39:29;;;;;;;6.10;3.63;;;;;;;24.09;51.94;99379.19;5128746;27;20106;-78
2022/08/06 04:41:56;;;;;;;5.90;3.22;;;;;;;23.91;53.13;99365.25;5128397;27;20028;-79
2022/08/06 04:44:21;;;;;;;4.75;3.30;;;;;;;24.11;53.88;99390.69;5128819;27;20038;-79
2022/08/06 04:46:48;;;;;;;4.10;2.63;;;;;;;24.03;52.88;99369.72;5128786;27;20050;-78
2022/08/06 04:49:17;;;;;;;5.78;3.63;;;;;;;24.42;52.43;99391.03;5128725;27;20062;-78
2022/08/06 04:51:46;;;;;;;5.43;3.60;;;;;;;24.38;52.40;99395.81;5128606;27;20412;-78
2022/08/06 04:54:15;;;;;;;4.82;2.90;;;;;;;24.64;51.17;99377.63;5128554;27;20381;-78
2022/08/06 04:56:42;;;;;;;5.20;3.63;;;;;;;24.77;51.63;99374.81;5128573;27;20031;-78
2022/08/06 04:59:09;;;;;;;6.22;4.28;;;;;;;24.91;51.01;99399.84;5128389;27;20070;-79
2022/08/06 05:01:36;;;;;;;6.10;3.05;;;;;;;25.16;49.95;99402.31;5129744;27;20042;-79
2022/08/06 05:04:02;;;;;;;6.32;4.40;;;;;;;25.33;49.58;99400.09;5149488;27;20022;-78
2022/08/06 05:06:49;;;;;;;4.47;2.63;;;;;;;25.05;49.81;99385.25;5149643;27;20034;-78
2022/08/06 05:09:21;;;;;;;7.35;3.67;;;;;;;25.16;49.58;99398.72;5148961;27;20027;-79
2022/08/06 05:12:05;;;;;;;5.40;3.25;;;;;;;25.29;49.63;99393.25;5149390;27;20027;-78
2022/08/06 05:14:42;;;;;;;5.40;3.00;;;;;;;25.29;49.85;99404.91;5149051;27;20038;-78
2022/08/06 05:17:13;;;;;;;12.68;3.78;;;;;;;25.74;47.79;99388.59;5149112;27;20034;-78
2022/08/06 05:19:44;;;;;;;8.40;3.75;;;;;;;25.44;47.63;99399.22;5149053;27;20026;-80
2022/08/06 05:22:13;;;;;;;6.03;3.30;;;;;;;25.50;48.12;99396.03;5148949;27;20042;-77
2022/08/06 05:24:40;;;;;;;6.22;4.22;;;;;;;25.66;48.26;99385.69;5148873;27;20408;-78
2022/08/06 05:27:06;;;;;;;4.68;3.78;;;;;;;25.88;47.25;99392.84;5148613;27;20079;-78
2022/08/06 05:29:31;;;;;;;4.70;3.45;;;;;;;25.65;47.03;99377.72;5148628;27;20030;-79
2022/08/06 05:32:01;;;;;;;4.80;3.55;;;;;;;26.09;47.58;99397.50;5148681;27;20492;-79
2022/08/06 05:34:27;;;;;;;8.10;3.55;;;;;;;26.30;47.42;99391.25;5148705;27;20085;-79
2022/08/06 05:36:53;;;;;;;7.28;4.18;;;;;;;26.53;47.25;99394.66;5148837;27;20058;-79
2022/08/06 05:39:19;;;;;;;4.75;3.13;;;;;;;26.40;47.72;99394.84;5149025;27;20133;-79
2022/08/06 05:41:45;;;;;;;4.65;3.55;;;;;;;26.36;46.17;99382.59;5148717;27;20026;-79
2022/08/06 05:44:11;;;;;;;7.05;3.38;;;;;;;26.30;46.81;99372.31;5148599;27;20496;-79
2022/08/06 05:46:46;;;;;;;4.32;3.00;;;;;;;26.62;46.53;99404.69;5148566;27;20049;-78
2022/08/06 05:49:21;;;;;;;6.25;3.78;;;;;;;26.74;46.26;99400.06;5148963;27;20049;-78
2022/08/06 05:51:54;;;;;;;4.80;3.47;;;;;;;27.00;45.49;99400.50;5148351;27;20035;-78
2022/08/06 05:54:35;;;;;;;4.45;3.22;;;;;;;27.01;45.35;99399.50;5148321;27;20035;-77
2022/08/06 05:57:09;;;;;;;4.10;2.40;;;;;;;26.94;45.56;99385.66;5148324;27;20404;-78
2022/08/06 05:59:39;;;;;;;3.85;2.53;;;;;;;27.47;44.86;99390.00;5148913;27;20519;-78
2022/08/06 06:02:06;;;;;;;4.43;3.28;;;;;;;27.61;44.49;99399.59;5148457;27;20038;-80
2022/08/06 06:04:32;;;;;;;6.15;4.43;;;;;;;27.60;44.33;99403.28;5148667;27;20109;-79
2022/08/06 06:06:58;;;;;;;12.30;2.90;;;;;;;27.80;43.51;99398.75;5148656;27;20034;-79
2022/08/06 06:09:25;;;;;;;3.85;2.83;;;;;;;27.91;43.55;99395.06;5148047;27;20046;-79
2022/08/06 06:11:51;;;;;;;4.85;2.35;;;;;;;28.09;43.69;99388.97;5148191;27;20031;-79
2022/08/06 06:14:37;;;;;;;5.55;2.72;;;;;;;28.38;43.06;99394.38;5148556;27;20113;-80
2022/08/06 06:17:17;;;;;;;3.85;2.67;;;;;;;28.45;41.85;99395.50;5148347;27;20091;-79
2022/08/06 06:19:56;;;;;;;2.50;2.03;;;;;;;28.23;42.74;99394.81;5148249;27;20506;-78
2022/08/06 06:22:51;;;;;;;4.00;2.58;;;;;;;28.02;42.94;99384.13;5148639;27;20027;-78
2022/08/06 06:25:27;;;;;;;3.85;2.30;;;;;;;27.85;43.92;99380.25;5148430;27;20035;-78
2022/08/06 06:27:59;;;;;;;3.25;2.35;;;;;;;27.95;43.82;99382.09;5149927;27;20113;-77
2022/08/06 06:30:44;;;;;;;4.50;3.10;;;;;;;27.83;43.64;99386.78;5151973;27;20026;-80
2022/08/06 06:33:24;;;;;;;3.30;2.35;;;;;;;27.81;44.98;99388.78;5152043;27;20065;-78
2022/08/06 06:36:10;;;;;;;4.95;2.25;;;;;;;28.37;43.69;99366.38;5152228;27;20026;-78
2022/08/06 06:38:44;;;;;;;3.80;2.47;;;;;;;28.73;43.14;99374.78;5151970;27;20034;-77
2022/08/06 06:41:14;;;;;;;6.60;2.83;;;;;;;29.10;42.29;99392.94;5152149;27;20034;-81
2022/08/06 06:43:48;;;;;;;3.92;2.63;;;;;;;29.29;41.54;99389.28;5151830;27;20141;-79
2022/08/06 06:46:26;;;;;;;3.17;2.20;;;;;;;29.45;42.20;99374.19;5152098;27;20079;-79
2022/08/06 06:49:01;;;;;;;5.03;2.50;;;;;;;29.92;43.25;99362.28;5133045;27;20125;-79
2022/08/06 06:51:42;;;;;;;3.83;2.63;;;;;;;30.24;40.58;99350.00;5151618;27;20117;-79
2022/08/06 06:54:27;;;;;;;4.78;3.08;;;;;;;30.41;39.98;99342.84;5151329;27;20030;-80
2022/08/06 06:56:54;;;;;;;;;;;;;;;30.68;40.59;99360.88;5133341;27;20518;-79
2022/08/06 06:59:27;;;;;;;4.53;2.58;;;;;;;30.84;40.36;99346.50;5151530;27;19918;-80
2022/08/06 07:01:53;;;;;;;4.57;3.00;;;;;;;31.54;38.81;99343.59;5151323;27;20848;-81
2022/08/06 07:04:21;;;;;;;5.45;2.50;;;;;;;31.06;39.52;99345.97;5151568;27;20166;-79
2022/08/06 07:06:51;;;;;;;4.32;2.38;;;;;;;31.58;37.75;99335.94;5151652;27;20034;-79
2022/08/06 07:09:20;;;;;;;4.20;2.75;;;;;;;31.34;38.87;99343.00;5151318;27;20023;-79
2022/08/06 07:11:50;;;;;;;3.65;2.05;;;;;;;31.83;39.12;99349.59;5151333;27;20035;-79
2022/08/06 07:14:20;;;;;;;5.00;3.15;;;;;;;32.47;37.15;99344.31;5151701;27;20023;-79
2022/08/06 07:16:47;;;;;;;4.00;2.50;;;;;;;32.23;39.18;99334.31;5151428;27;20030;-79
2022/08/06 07:19:13;;;;;;;4.03;2.28;;;;;;;33.01;36.76;99357.34;5151534;27;20125;-80
2022/08/06 07:21:41;;;;;;;4.22;2.72;;;;;;;32.75;34.68;99336.63;5151126;27;20600;-80
2022/08/06 07:24:08;;;;;;;4.82;2.53;;;;;;;32.54;35.29;99352.69;5151385;27;20038;-79
2022/08/06 07:26:35;;;;;;;3.60;2.30;;;;;;;32.19;35.96;99336.50;5132027;27;20125;-80
2022/08/06 07:29:02;;;;;;;4.10;2.42;;;;;;;32.52;35.93;99335.59;5151560;27;20117;-80
2022/08/06 07:31:28;;;;;;;4.40;2.45;;;;;;;32.42;36.45;99350.28;5151723;27;20049;-80
2022/08/06 07:33:54;;;;;;;3.72;2.47;;;;;;;32.63;34.31;99327.91;5150731;27;20081;-79
2022/08/06 07:36:24;;;;;;;4.93;2.70;;;;;;;32.47;35.24;99344.31;5150904;27;20027;-82
2022/08/06 07:38:52;;;;;;;3.28;2.30;;;;;;;32.79;35.87;99334.38;5151098;27;20034;-80
2022/08/06 07:41:20;;;;;;;3.78;2.58;;;;;;;33.28;34.34;99320.56;5150786;27;20033;-80
2022/08/06 07:43:53;;;;;;;4.13;3.00;;;;;;;33.52;33.83;99315.97;5150727;27;20480;-79
2022/08/06 07:46:28;;;;;;;3.85;2.97;;;;;;;33.71;34.35;99318.25;5150767;27;20083;-80
2022/08/06 07:48:59;;;;;;;3.85;2.38;;;;;;;34.29;33.79;99333.38;5151049;27;20085;-79
2022/08/06 07:51:29;;;;;;;4.78;2.97;;;;;;;34.47;32.69;99314.72;5150750;27;20568;-80
2022/08/06 07:53:56;;;;;;;3.50;2.38;;;;;;;33.92;32.73;99330.41;5150686;27;20025;-79
2022/08/06 07:56:24;;;;;;;4.60;2.92;;;;;;;33.98;32.39;99326.09;5133980;27;20035;-79
2022/08/06 07:58:51;;;;;;;3.38;2.25;;;;;;;33.50;33.59;99312.56;5136276;27;20050;-79
2022/08/06 08:01:16;;;;;;;7.15;3.63;;;;;;;33.47;34.88;99321.13;5150580;27;20117;-85
2022/08/06 08:06:28;;;;;;;3.90;2.67;;;;;;;35.06;32.15;99302.09;5129214;27;20057;-82
2022/08/06 08:08:59;;;;;;;3.80;2.38;;;;;;;35.26;32.68;99313.31;5129897;27;20035;-80
2022/08/06 08:11:25;;;;;;;4.35;2.20;;;;;;;35.35;31.37;99303.94;5129329;27;20027;-80
2022/08/06 08:13:53;;;;;;;3.70;2.40;;;;;;;35.23;30.08;99306.28;5129570;27;20042;-81
2022/08/06 08:16:20;;;;;;;4.43;2.67;;;;;;;34.74;32.10;99293.19;5129275;27;20038;-80
2022/08/06 08:18:45;;;;;;;5.10;2.38;;;;;;;35.15;29.59;99312.72;5129428;27;20462;-79
2022/08/06 08:21:12;;;;;;;2.85;1.80;;;;;;;35.05;30.18;99311.34;5129660;27;20023;-80
2022/08/06 08:23:39;;;;;;;3.60;2.05;;;;;;;34.78;29.89;99292.66;5129621;27;20039;-80
2022/08/06 08:26:05;;;;;;;2.88;1.80;;;;;;;35.03;30.58;99295.09;5129732;27;20095;-79
2022/08/06 08:28:31;;;;;;;3.17;2.22;;;;;;;35.49;32.42;99297.56;5129257;27;20527;-80
2022/08/06 08:31:05;;;;;;;4.30;3.10;;;;;;;35.53;31.76;99288.94;5128787;27;20114;-80
2022/08/06 08:33:32;;;;;;;7.60;2.63;;;;;;;35.53;30.25;99295.28;5129506;27;20047;-82
2022/08/06 08:35:58;;;;;;;4.10;2.30;;;;;;;35.68;29.71;99279.63;5128993;27;20054;-79
2022/08/06 08:38:24;;;;;;;4.03;2.42;;;;;;;35.30;29.13;99289.97;5129146;27;20035;-80
2022/08/06 08:40:51;;;;;;;3.67;2.45;;;;;;;35.55;30.80;99295.09;5129114;27;20540;-80
2022/08/06 08:43:25;;;;;;;3.13;2.25;;;;;;;36.17;28.58;99285.34;5129303;27;20034;-80
2022/08/06 08:45:53;;;;;;;4.75;1.88;;;;;;;35.93;29.22;99292.09;5129177;27;20031;-81
2022/08/06 08:48:23;;;;;;;3.33;2.13;;;;;;;36.31;27.23;99269.84;5128693;27;20062;-80
2022/08/06 08:50:50;;;;;;;3.30;2.17;;;;;;;36.38;30.25;99270.75;5128690;27;20031;-80
2022/08/06 08:53:29;;;;;;;2.67;1.70;;;;;;;36.54;28.15;99284.13;5128506;27;20510;-80
2022/08/06 08:55:55;;;;;;;3.40;2.30;;;;;;;37.20;27.89;99266.31;5128635;27;20495;-82
2022/08/06 08:58:22;;;;;;;4.38;2.50;;;;;;;37.58;26.44;99270.44;5128501;27;20515;-80
2022/08/06 09:00:48;;;;;;;3.97;3.00;;;;;;;37.35;27.82;99276.31;5128635;27;20023;-80
2022/08/06 09:03:15;;;;;;;5.35;2.92;;;;;;;36.78;26.43;99265.50;5128667;27;20088;-80
2022/08/06 09:05:41;;;;;;;6.35;4.82;;;;;;;36.18;27.70;99271.41;5140801;27;20034;-80
2022/08/06 09:08:09;;;;;;;4.07;2.67;;;;;;;35.99;28.53;99264.72;5144061;27;20596;-81
2022/08/06 09:10:36;;;;;;;4.72;2.92;;;;;;;36.14;28.19;99261.03;5128511;27;20031;-80
2022/08/06 09:13:02;;;;;;;4.80;2.63;;;;;;;35.99;29.96;99258.38;5128210;27;20041;-81
2022/08/06 09:15:28;;;;;;;4.70;2.75;;;;;;;36.52;26.78;99260.69;5128675;27;20031;-80
2022/08/06 09:17:54;;;;;;;3.22;2.20;;;;;;;36.90;26.01;99255.59;5128271;27;20577;-80
2022/08/06 09:20:20;;;;;;;5.57;3.97;;;;;;;36.88;27.27;99254.13;5128643;27;20085;-82
2022/08/06 09:22:50;;;;;;;3.00;2.63;;;;;;;36.90;26.47;99246.53;5128338;27;20027;-80
2022/08/06 09:25:34;;;;;;;2.92;2.47;;;;;;;37.24;27.88;99258.50;5109317;27;20430;-80
2022/08/06 09:28:00;;;;;;;4.63;3.40;;;;;;;37.46;25.53;99256.44;5145840;27;20027;-81
2022/08/06 09:30:26;;;;;;;15.13;11.77;;;;;;;37.37;25.53;99243.94;5148911;27;20118;-81
2022/08/06 09:32:55;;;;;;;3.65;2.65;;;;;;;36.55;26.65;99249.31;5148698;27;20042;-81
2022/08/06 09:35:23;;;;;;;3.15;2.28;;;;;;;36.28;27.24;99248.28;5148585;27;20481;-81
2022/08/06 09:37:58;;;;;;;3.78;2.53;;;;;;;36.37;28.15;99256.16;5148609;27;20038;-81
2022/08/06 09:40:24;;;;;;;2.70;1.85;;;;;;;36.53;25.85;99255.00;5148531;27;20031;-79
2022/08/06 09:42:52;;;;;;;3.33;2.50;;;;;;;36.12;27.11;99250.25;5135112;27;20027;-79
2022/08/06 09:45:21;;;;;;;4.13;2.45;;;;;;;35.94;28.13;99247.16;5128004;27;20031;-79
2022/08/06 09:47:48;;;;;;;2.95;2.08;;;;;;;35.89;27.44;99230.44;5128464;27;20035;-81
2022/08/06 09:50:14;;;;;;;3.80;2.05;;;;;;;36.45;26.73;99238.66;5148057;27;20113;-80
2022/08/06 09:52:40;;;;;;;6.50;2.88;;;;;;;37.07;26.17;99230.53;5129852;27;20519;-80
2022/08/06 09:55:06;;;;;;;3.30;2.13;;;;;;;36.78;25.57;99221.56;5138905;27;20038;-81
2022/08/06 09:57:45;;;;;;;2.53;1.85;;;;;;;36.84;25.58;99239.97;5144914;27;20039;-80
2022/08/06 10:00:25;;;;;;;5.20;2.10;;;;;;;37.17;26.86;99238.34;5148945;27;20129;-82
2022/08/06 10:03:05;;;;;;;3.33;2.40;;;;;;;37.36;25.46;99245.00;5149635;27;20027;-83
2022/08/06 10:05:32;;;;;;;3.20;2.15;;;;;;;37.20;25.89;99238.81;5152835;27;20495;-82
2022/08/06 10:08:09;;;;;;;3.60;2.00;;;;;;;36.89;27.05;99242.06;5152523;27;20432;-83
2022/08/06 10:10:38;;;;;;;3.42;2.35;;;;;;;35.82;28.34;99220.28;5152056;27;20111;-81
2022/08/06 10:13:12;;;;;;;9.35;2.00;;;;;;;35.94;28.43;99230.69;5152453;27;20033;-81
2022/08/06 10:15:38;;;;;;;3.38;2.05;;;;;;;36.11;28.51;99234.81;5153145;27;20193;-80
2022/08/06 10:18:03;;;;;;;3.10;1.95;;;;;;;36.36;27.58;99223.41;5152409;27;20138;-81
2022/08/06 10:20:29;;;;;;;5.40;2.75;;;;;;;36.14;28.11;99217.97;5152405;27;20038;-80
2022/08/06 10:22:57;;;;;;;4.18;2.88;;;;;;;35.91;27.49;99223.69;5152560;27;20066;-79
2022/08/06 10:25:23;;;;;;;8.43;5.95;;;;;;;36.14;27.52;99206.97;5151973;27;20082;-79
2022/08/06 10:27:53;;;;;;;3.85;2.88;;;;;;;36.14;28.63;99212.47;5152218;27;20193;-81
2022/08/06 10:30:20;;;;;;;3.42;2.42;;;;;;;35.52;28.20;99205.84;5152053;27;20046;-79
2022/08/06 10:32:51;;;;;;;6.25;2.55;;;;;;;35.80;27.37;99216.88;5152343;27;20081;-80
2022/08/06 10:35:20;;;;;;;3.85;3.00;;;;;;;35.59;28.03;99211.38;5152376;27;20041;-78
2022/08/06 10:37:50;;;;;;;3.72;2.92;;;;;;;36.26;27.11;99210.06;5152047;27;20464;-83
2022/08/06 10:40:20;;;;;;;4.60;2.22;;;;;;;36.70;26.32;99217.06;5151764;27;20027;-80
2022/08/06 10:42:46;;;;;;;4.88;2.85;;;;;;;36.87;25.67;99203.84;5151992;27;20400;-79
2022/08/06 10:45:13;;;;;;;4.35;2.58;;;;;;;37.04;26.83;99200.69;5152281;27;20031;-81
2022/08/06 10:47:40;;;;;;;3.40;2.90;;;;;;;36.84;26.89;99198.75;5152009;27;20179;-81
2022/08/06 10:50:09;;;;;;;3.22;1.88;;;;;;;36.75;26.65;99202.75;5151713;27;20050;-81
2022/08/06 10:52:35;;;;;;;2.83;2.00;;;;;;;36.44;26.56;99181.22;5151926;27;20126;-83
2022/08/06 10:55:04;;;;;;;3.25;2.10;;;;;;;36.64;25.62;99178.56;5151895;27;20110;-80
2022/08/06 10:57:31;;;;;;;6.60;2.35;;;;;;;37.05;25.95;99184.00;5151770;27;20058;-81
2022/08/06 10:59:58;;;;;;;3.50;2.20;;;;;;;37.28;25.47;99191.06;5152083;27;20027;-79
2022/08/06 11:02:48;;;;;;;2.88;2.00;;;;;;;37.50;25.83;99186.22;5151654;27;20152;-80
2022/08/06 11:05:18;;;;;;;5.75;4.55;;;;;;;37.17;26.06;99167.75;5151606;27;20029;-80
2022/08/06 11:08:02;;;;;;;4.93;4.15;;;;;;;36.15;26.59;99186.72;5151788;27;20035;-79
2022/08/06 11:11:04;;;;;;;5.28;3.65;;;;;;;35.70;29.70;99156.00;5151535;27;20027;-81
2022/08/06 11:13:49;;;;;;;5.95;4.90;;;;;;;36.44;26.69;99164.72;5150218;27;20103;-81
2022/08/06 11:16:25;;;;;;;5.18;3.45;;;;;;;36.46;26.28;99168.13;5151804;27;20030;-80
2022/08/06 11:19:04;;;;;;;7.75;3.63;;;;;;;36.60;25.55;99149.81;5151614;27;20069;-78
2022/08/06 11:21:42;;;;;;;5.82;2.70;;;;;;;36.73;26.03;99172.69;5151457;27;20500;-80
2022/08/06 11:24:09;;;;;;;3.75;2.17;;;;;;;37.17;25.25;99162.25;5150876;27;20030;-80
2022/08/06 11:26:37;;;;;;;3.38;2.42;;;;;;;36.84;26.35;99162.16;5151361;27;20129;-80
2022/08/06 11:29:05;;;;;;;3.45;2.50;;;;;;;36.51;26.39;99154.63;5151328;27;20430;-81
2022/08/06 11:31:34;;;;;;;4.30;2.72;;;;;;;36.81;27.28;99157.97;5141915;27;20031;-79
2022/08/06 11:34:03;;;;;;;3.30;1.98;;;;;;;37.24;26.18;99156.78;5144898;27;20527;-80
2022/08/06 11:36:53;;;;;;;4.22;1.90;;;;;;;37.29;24.85;99162.50;5150630;27;20133;-80
2022/08/06 11:39:20;;;;;;;4.32;2.40;;;;;;;36.92;25.41;99146.34;5150984;27;20030;-83
2022/08/06 11:41:57;;;;;;;6.57;3.90;;;;;;;36.99;25.51;99167.50;5151082;27;20176;-80
2022/08/06 11:44:25;;;;;;;4.65;2.85;;;;;;;36.65;27.35;99159.13;5150795;27;20050;-80
2022/08/06 11:47:16;;;;;;;4.40;3.50;;;;;;;36.72;27.51;99159.16;5150758;27;20031;-79
2022/08/06 11:49:44;;;;;;;2.55;1.77;;;;;;;36.41;26.28;99159.66;5150946;27;20035;-79